createdAt,value
2023-05-14T00:00:48.126Z,2.35
2023-05-14T00:03:15.675Z,2.42
2023-05-14T00:05:42.651Z,2.13
2023-05-14T00:08:09.790Z,2.50
2023-05-14T00:10:36.887Z,2.17
2023-05-14T00:13:03.922Z,2.10
2023-05-14T00:15:32.840Z,2.58
2023-05-14T00:18:01.269Z,2.50
2023-05-14T00:20:28.564Z,2.42
2023-05-14T00:22:55.599Z,2.60
2023-05-14T00:25:22.632Z,2.47
2023-05-14T00:27:49.643Z,2.45
2023-05-14T00:30:16.788Z,2.40
2023-05-14T00:32:43.778Z,2.75
2023-05-14T00:35:10.929Z,2.20
2023-05-14T00:37:37.948Z,2.83
2023-05-14T00:40:06.974Z,2.65
2023-05-14T00:42:34.650Z,2.55
2023-05-14T00:45:01.610Z,2.13
2023-05-14T00:47:29.758Z,2.70
2023-05-14T00:49:56.732Z,2.40
2023-05-14T00:52:24.065Z,2.42
2023-05-14T00:54:51.239Z,2.80
2023-05-14T00:57:19.199Z,2.70
2023-05-14T00:59:46.443Z,3.08
2023-05-14T01:02:13.464Z,3.60
2023-05-14T01:04:41.652Z,3.30
2023-05-14T01:07:17.756Z,3.40
2023-05-14T01:09:57.281Z,3.25
2023-05-14T01:12:40.880Z,2.90
2023-05-14T01:15:32.221Z,2.72
2023-05-14T01:18:09.844Z,2.70
2023-05-14T01:20:38.042Z,3.13
2023-05-14T01:23:05.095Z,3.53
2023-05-14T01:25:32.524Z,3.10
2023-05-14T01:28:11.771Z,3.35
2023-05-14T01:30:53.819Z,2.83
2023-05-14T01:33:22.344Z,2.75
2023-05-14T01:35:50.135Z,2.72
2023-05-14T01:38:20.307Z,2.78
2023-05-14T01:40:48.422Z,3.38
2023-05-14T01:43:16.535Z,2.85
2023-05-14T01:45:44.239Z,3.38
2023-05-14T01:48:11.471Z,3.38
2023-05-14T01:50:38.682Z,3.50
2023-05-14T01:53:06.590Z,3.35
2023-05-14T01:55:33.559Z,3.97
2023-05-14T01:58:01.095Z,3.35
2023-05-14T02:00:28.262Z,3.25
2023-05-14T02:02:55.349Z,3.20
2023-05-14T02:05:23.726Z,3.40
2023-05-14T02:07:51.513Z,3.10
2023-05-14T02:10:18.682Z,3.05
2023-05-14T02:12:51.287Z,2.83
2023-05-14T02:15:18.730Z,3.10
2023-05-14T02:17:46.133Z,2.67
2023-05-14T02:20:13.616Z,2.92
2023-05-14T02:22:45.812Z,2.90
2023-05-14T02:25:12.879Z,3.28
2023-05-14T02:27:40.330Z,2.97
2023-05-14T02:30:07.985Z,3.20
2023-05-14T02:32:35.294Z,2.80
2023-05-14T02:35:02.455Z,2.97
2023-05-14T02:37:32.428Z,3.60
2023-05-14T02:39:59.585Z,3.25
2023-05-14T02:42:27.146Z,3.13
2023-05-14T02:44:54.128Z,2.88
2023-05-14T02:47:23.247Z,3.10
2023-05-14T02:49:50.434Z,2.97
2023-05-14T02:52:17.538Z,2.75
2023-05-14T02:54:44.596Z,2.72
2023-05-14T02:57:11.516Z,2.40
2023-05-14T02:59:38.595Z,2.65
2023-05-14T03:02:06.411Z,2.50
2023-05-14T03:04:34.168Z,2.65
2023-05-14T03:07:01.275Z,2.33
2023-05-14T03:09:28.283Z,2.40
2023-05-14T03:11:55.289Z,2.20
2023-05-14T03:14:23.095Z,2.42
2023-05-14T03:16:50.298Z,2.05
2023-05-14T03:19:18.527Z,2.25
2023-05-14T03:21:45.884Z,2.60
2023-05-14T03:24:12.951Z,2.35
2023-05-14T03:26:40.054Z,2.10
2023-05-14T03:29:08.452Z,2.33
2023-05-14T03:31:35.908Z,2.25
2023-05-14T03:34:03.614Z,2.50
2023-05-14T03:36:30.596Z,2.08
2023-05-14T03:38:57.833Z,2.05
2023-05-14T03:41:24.887Z,2.42
2023-05-14T03:43:52.117Z,2.50
2023-05-14T03:46:19.126Z,2.20
2023-05-14T03:48:46.152Z,2.70
2023-05-14T03:51:13.235Z,2.42
2023-05-14T03:53:40.282Z,2.83
2023-05-14T03:56:07.577Z,3.33
2023-05-14T03:58:34.649Z,2.47
2023-05-14T04:01:04.467Z,2.60
2023-05-14T04:03:31.904Z,2.47
2023-05-14T04:05:59.322Z,2.58
2023-05-14T04:08:26.304Z,2.83
2023-05-14T04:10:54.193Z,2.75
2023-05-14T04:13:23.377Z,2.38
2023-05-14T04:15:50.414Z,2.72
2023-05-14T04:18:17.451Z,2.75
2023-05-14T04:20:45.181Z,2.50
2023-05-14T04:23:12.391Z,2.20
2023-05-14T04:25:39.351Z,2.70
2023-05-14T04:28:06.328Z,2.30
2023-05-14T04:30:33.318Z,2.88
2023-05-14T04:33:00.652Z,2.58
2023-05-14T04:35:27.884Z,3.08
2023-05-14T04:37:54.878Z,2.20
2023-05-14T04:40:22.885Z,2.60
2023-05-14T04:42:50.310Z,2.50
2023-05-14T04:45:17.661Z,2.30
2023-05-14T04:47:45.270Z,2.20
2023-05-14T04:50:12.368Z,2.70
2023-05-14T04:52:42.305Z,2.97
2023-05-14T04:55:10.191Z,2.75
2023-05-14T04:57:37.255Z,2.55
2023-05-14T05:00:07.928Z,2.40
2023-05-14T05:02:35.039Z,2.65
2023-05-14T05:05:04.302Z,2.50
2023-05-14T05:07:33.572Z,2.22
2023-05-14T05:10:00.764Z,2.78
2023-05-14T05:12:30.253Z,2.33
2023-05-14T05:14:57.848Z,2.35
2023-05-14T05:17:25.695Z,2.60
2023-05-14T05:19:52.913Z,2.45
2023-05-14T05:22:20.369Z,2.60
2023-05-14T05:24:49.803Z,2.53
2023-05-14T05:27:17.302Z,2.63
2023-05-14T05:29:45.118Z,2.42
2023-05-14T05:32:12.208Z,2.35
2023-05-14T05:34:39.477Z,2.08
2023-05-14T05:37:06.432Z,2.10
2023-05-14T05:39:35.258Z,2.10
2023-05-14T05:42:02.944Z,1.92
2023-05-14T05:44:30.101Z,1.95
2023-05-14T05:46:57.971Z,1.90
2023-05-14T05:49:25.040Z,1.90
2023-05-14T05:51:52.318Z,1.85
2023-05-14T05:54:19.454Z,1.95
2023-05-14T05:56:46.495Z,1.85
2023-05-14T05:59:13.788Z,1.80
2023-05-14T06:01:41.717Z,2.05
2023-05-14T06:04:08.754Z,1.98
2023-05-14T06:06:35.949Z,1.90
2023-05-14T06:09:03.158Z,2.20
2023-05-14T06:11:31.113Z,1.98
2023-05-14T06:13:58.201Z,1.90
2023-05-14T06:16:25.299Z,2.50
2023-05-14T06:18:55.975Z,2.67
2023-05-14T06:21:23.168Z,1.70
2023-05-14T06:23:50.163Z,2.00
2023-05-14T06:26:17.236Z,1.90
2023-05-14T06:28:44.890Z,2.00
2023-05-14T06:31:12.126Z,1.90
2023-05-14T06:33:39.337Z,2.00
2023-05-14T06:36:07.950Z,2.10
2023-05-14T06:38:35.000Z,2.10
2023-05-14T06:41:01.974Z,2.33
2023-05-14T06:43:29.075Z,2.45
2023-05-14T06:45:56.157Z,2.00
2023-05-14T06:48:23.435Z,2.30
2023-05-14T06:50:50.841Z,1.90
2023-05-14T06:53:17.857Z,1.27
2023-05-14T06:55:47.258Z,1.38
2023-05-14T06:58:14.306Z,1.33
2023-05-14T07:00:41.349Z,1.80
2023-05-14T07:03:08.423Z,1.40
2023-05-14T07:05:35.903Z,1.80
2023-05-14T07:08:02.940Z,2.30
2023-05-14T07:10:31.004Z,2.25
2023-05-14T07:12:58.112Z,1.30
2023-05-14T07:15:25.230Z,1.20
2023-05-14T07:17:52.173Z,1.30
2023-05-14T07:20:24.391Z,1.40
2023-05-14T07:22:53.374Z,1.30
2023-05-14T07:25:20.522Z,1.45
2023-05-14T07:27:47.563Z,1.48
2023-05-14T07:30:15.198Z,1.50
2023-05-14T07:32:42.364Z,1.50
2023-05-14T07:35:10.189Z,1.90
2023-05-14T07:37:37.758Z,1.90
2023-05-14T07:40:05.246Z,1.52
2023-05-14T07:42:36.986Z,1.67
2023-05-14T07:45:06.008Z,1.50
2023-05-14T07:47:34.731Z,1.75
2023-05-14T07:50:02.370Z,1.40
2023-05-14T07:52:32.720Z,1.70
2023-05-14T07:55:01.375Z,1.85
2023-05-14T07:57:32.504Z,1.63
2023-05-14T07:59:59.576Z,2.15
2023-05-14T08:02:26.876Z,1.50
2023-05-14T08:04:54.169Z,1.60
2023-05-14T08:07:21.863Z,1.48
2023-05-14T08:09:48.961Z,1.75
2023-05-14T08:12:16.389Z,1.77
2023-05-14T08:14:43.496Z,1.50
2023-05-14T08:17:10.496Z,2.00
2023-05-14T08:19:37.919Z,1.55
2023-05-14T08:22:05.645Z,1.70
2023-05-14T08:24:33.172Z,1.60
2023-05-14T08:27:00.653Z,1.73
2023-05-14T08:29:27.747Z,1.88
2023-05-14T08:31:54.975Z,2.20
2023-05-14T08:34:22.881Z,2.38
2023-05-14T08:36:50.041Z,2.00
2023-05-14T08:39:17.351Z,1.83
2023-05-14T08:41:45.649Z,2.58
2023-05-14T08:44:20.044Z,1.35
2023-05-14T08:46:50.022Z,1.60
2023-05-14T08:49:42.787Z,1.80
2023-05-14T08:52:10.833Z,1.40
2023-05-14T08:54:38.300Z,1.70
2023-05-14T08:57:06.021Z,1.60
2023-05-14T08:59:33.082Z,1.50
2023-05-14T09:02:02.861Z,1.67
2023-05-14T09:04:31.219Z,1.80
2023-05-14T09:07:01.528Z,1.55
2023-05-14T09:09:29.217Z,1.55
2023-05-14T09:11:56.224Z,1.70
2023-05-14T09:14:24.492Z,1.60
2023-05-14T09:16:51.965Z,2.53
2023-05-14T09:19:20.614Z,2.75
2023-05-14T09:21:49.738Z,2.03
2023-05-14T09:24:24.708Z,2.20
2023-05-14T09:27:02.244Z,2.03
2023-05-14T09:29:30.194Z,1.90
2023-05-14T09:31:58.615Z,2.00
2023-05-14T09:34:33.548Z,2.15
2023-05-14T09:37:03.304Z,1.92
2023-05-14T09:39:31.278Z,1.70
2023-05-14T09:41:58.522Z,1.85
2023-05-14T09:44:28.906Z,1.90
2023-05-14T09:46:56.404Z,1.75
2023-05-14T09:49:23.438Z,1.50
2023-05-14T09:51:50.677Z,1.60
2023-05-14T09:54:17.743Z,1.98
2023-05-14T09:56:45.345Z,1.60
2023-05-14T09:59:12.782Z,1.70
2023-05-14T10:01:43.187Z,2.08
2023-05-14T10:04:12.106Z,1.48
2023-05-14T10:06:40.048Z,1.60
2023-05-14T10:09:12.531Z,1.50
2023-05-14T10:11:44.118Z,2.10
2023-05-14T10:14:38.985Z,1.77
2023-05-14T10:17:06.869Z,1.65
2023-05-14T10:19:35.594Z,1.70
2023-05-14T10:22:08.368Z,1.90
2023-05-14T10:24:38.904Z,1.65
2023-05-14T10:27:06.356Z,1.40
2023-05-14T10:29:38.243Z,1.42
2023-05-14T10:32:07.929Z,1.50
2023-05-14T10:34:43.887Z,2.17
2023-05-14T10:39:51.398Z,1.60
2023-05-14T10:42:20.867Z,1.38
2023-05-14T10:44:49.649Z,1.60
2023-05-14T10:47:17.985Z,1.67
2023-05-14T10:49:49.335Z,1.58
2023-05-14T10:52:19.419Z,1.33
2023-05-14T10:54:56.490Z,1.50
2023-05-14T10:57:26.320Z,1.70
2023-05-14T10:59:55.254Z,1.55
2023-05-14T11:02:30.292Z,1.50
2023-05-14T11:05:00.461Z,1.73
2023-05-14T11:07:32.978Z,1.60
2023-05-14T11:10:08.743Z,1.58
2023-05-14T11:12:38.020Z,1.40
2023-05-14T11:15:09.490Z,1.27
2023-05-14T11:17:38.379Z,1.60
2023-05-14T11:20:06.667Z,1.70
2023-05-14T11:22:35.447Z,1.30
2023-05-14T11:25:02.918Z,2.00
2023-05-14T11:27:34.838Z,1.80
2023-05-14T11:30:02.313Z,1.80
2023-05-14T11:32:35.415Z,2.13
2023-05-14T11:35:02.660Z,1.70
2023-05-14T11:37:32.345Z,1.50
2023-05-14T11:40:04.501Z,1.80
2023-05-14T11:42:37.390Z,1.50
2023-05-14T11:45:05.288Z,1.45
2023-05-14T11:47:32.766Z,1.60
2023-05-14T11:50:01.043Z,2.05
2023-05-14T11:52:28.137Z,1.40
2023-05-14T11:54:55.411Z,1.50
2023-05-14T11:57:23.312Z,1.27
2023-05-14T11:59:59.271Z,1.50
2023-05-14T12:04:55.774Z,1.58
2023-05-14T12:07:23.128Z,1.33
2023-05-14T12:09:50.818Z,1.50
2023-05-14T12:12:21.016Z,1.50
2023-05-14T12:14:49.116Z,1.13
2023-05-14T12:17:18.684Z,1.50
2023-05-14T12:19:48.134Z,1.40
2023-05-14T12:22:17.565Z,1.40
2023-05-14T12:24:53.661Z,1.60
2023-05-14T12:27:23.781Z,1.40
2023-05-14T12:30:06.263Z,1.65
2023-05-14T12:32:41.458Z,1.33
2023-05-14T12:35:09.602Z,2.30
2023-05-14T12:37:37.686Z,2.30
2023-05-14T12:40:21.295Z,1.63
2023-05-14T12:42:51.093Z,1.30
2023-05-14T12:45:18.586Z,1.50
2023-05-14T12:47:45.936Z,1.38
2023-05-14T12:50:13.172Z,2.10
2023-05-14T12:52:40.350Z,1.60
2023-05-14T12:55:10.447Z,1.58
2023-05-14T12:57:40.663Z,1.63
2023-05-14T13:00:15.739Z,1.50
2023-05-14T13:02:43.867Z,1.42
2023-05-14T13:05:12.558Z,1.70
2023-05-14T13:07:39.900Z,1.38
2023-05-14T13:10:07.594Z,1.73
2023-05-14T13:12:34.793Z,1.90
2023-05-14T13:15:01.992Z,2.50
2023-05-14T13:17:33.310Z,1.65
2023-05-14T13:20:00.775Z,1.83
2023-05-14T13:22:27.820Z,1.58
2023-05-14T13:24:54.810Z,1.65
2023-05-14T13:27:21.900Z,1.88
2023-05-14T13:29:48.855Z,1.55
2023-05-14T13:32:15.950Z,1.45
2023-05-14T13:34:44.187Z,1.38
2023-05-14T13:37:11.413Z,1.35
2023-05-14T13:39:39.846Z,1.80
2023-05-14T13:42:08.126Z,1.40
2023-05-14T13:44:36.297Z,1.40
2023-05-14T13:47:03.615Z,1.20
2023-05-14T13:49:30.753Z,1.48
2023-05-14T13:51:57.874Z,1.48
2023-05-14T13:54:24.960Z,1.40
2023-05-14T13:56:52.161Z,1.75
2023-05-14T13:59:19.239Z,2.13
2023-05-14T14:01:46.688Z,2.00
2023-05-14T14:04:16.515Z,2.00
2023-05-14T14:06:44.190Z,1.98
2023-05-14T14:09:13.522Z,1.77
2023-05-14T14:11:41.277Z,2.10
2023-05-14T14:14:08.603Z,1.83
2023-05-14T14:16:36.353Z,1.80
2023-05-14T14:19:03.706Z,2.58
2023-05-14T14:21:31.854Z,1.90
2023-05-14T14:23:59.215Z,1.73
2023-05-14T14:26:27.992Z,1.75
2023-05-14T14:28:55.777Z,1.92
2023-05-14T14:31:23.098Z,1.60
2023-05-14T14:33:50.450Z,2.00
2023-05-14T14:36:17.631Z,1.75
2023-05-14T14:38:44.777Z,1.65
2023-05-14T14:41:11.843Z,2.38
2023-05-14T14:43:41.160Z,1.55
2023-05-14T14:46:09.418Z,1.90
2023-05-14T14:48:41.303Z,1.55
2023-05-14T14:51:09.191Z,1.50
2023-05-14T14:53:37.394Z,1.40
2023-05-14T14:56:04.960Z,1.50
2023-05-14T14:58:32.225Z,1.40
2023-05-14T15:01:01.280Z,1.83
2023-05-14T15:03:29.645Z,1.67
2023-05-14T15:05:56.875Z,2.10
2023-05-14T15:08:28.177Z,2.40
2023-05-14T15:10:59.512Z,2.60
2023-05-14T15:13:27.207Z,2.20
2023-05-14T15:15:54.780Z,1.98
2023-05-14T15:18:21.894Z,1.52
2023-05-14T15:20:49.211Z,2.00
2023-05-14T15:23:16.322Z,1.70
2023-05-14T15:25:43.535Z,1.58
2023-05-14T15:28:11.047Z,1.73
2023-05-14T15:30:38.068Z,1.50
2023-05-14T15:33:07.955Z,2.03
2023-05-14T15:35:34.989Z,1.50
2023-05-14T15:38:02.296Z,1.48
2023-05-14T15:40:29.679Z,1.50
2023-05-14T15:42:56.734Z,1.63
2023-05-14T15:45:23.906Z,1.73
2023-05-14T15:47:51.327Z,2.10
2023-05-14T15:50:18.645Z,1.52
2023-05-14T15:52:45.892Z,2.00
2023-05-14T15:55:12.873Z,1.65
2023-05-14T15:57:40.235Z,1.38
2023-05-14T16:00:11.167Z,1.60
2023-05-14T16:02:41.462Z,1.70
2023-05-14T16:05:09.221Z,1.85
2023-05-14T16:07:36.865Z,2.13
2023-05-14T16:10:04.176Z,1.77
2023-05-14T16:12:33.329Z,2.33
2023-05-14T16:15:01.085Z,2.10
2023-05-14T16:17:34.959Z,2.22
2023-05-14T16:20:02.248Z,2.22
2023-05-14T16:22:34.748Z,2.00
2023-05-14T16:25:04.417Z,1.90
2023-05-14T16:27:33.586Z,2.50
2023-05-14T16:30:00.917Z,2.85
2023-05-14T16:32:33.843Z,2.90
2023-05-14T16:35:02.648Z,2.10
2023-05-14T16:37:34.332Z,2.40
2023-05-14T16:40:01.633Z,2.30
2023-05-14T16:42:32.712Z,2.13
2023-05-14T16:44:59.854Z,1.98
2023-05-14T16:47:26.845Z,2.42
2023-05-14T16:49:53.834Z,2.05
2023-05-14T16:52:21.272Z,2.85
2023-05-14T16:54:48.200Z,2.22
2023-05-14T16:57:15.808Z,2.20
2023-05-14T16:59:42.772Z,2.47
2023-05-14T17:02:09.837Z,2.33
2023-05-14T17:04:42.222Z,2.30
2023-05-14T17:07:10.162Z,2.50
2023-05-14T17:09:37.625Z,2.30
2023-05-14T17:12:04.831Z,2.47
2023-05-14T17:14:31.999Z,2.50
2023-05-14T17:16:58.969Z,2.15
2023-05-14T17:19:25.977Z,2.60
2023-05-14T17:21:53.131Z,2.28
2023-05-14T17:24:20.183Z,2.60
2023-05-14T17:26:47.282Z,2.90
2023-05-14T17:29:14.378Z,3.03
2023-05-14T17:31:41.482Z,3.10
2023-05-14T17:34:08.484Z,3.53
2023-05-14T17:36:35.451Z,3.22
2023-05-14T17:39:02.499Z,3.15
2023-05-14T17:41:29.573Z,3.22
2023-05-14T17:43:56.554Z,2.90
2023-05-14T17:46:23.710Z,3.13
2023-05-14T17:48:51.128Z,3.03
2023-05-14T17:51:18.218Z,3.45
2023-05-14T17:53:45.242Z,3.17
2023-05-14T17:56:12.340Z,3.38
2023-05-14T17:58:39.431Z,3.38
2023-05-14T18:01:06.596Z,4.03
2023-05-14T18:03:33.966Z,3.40
2023-05-14T18:06:01.303Z,3.58
2023-05-14T18:08:30.134Z,3.15
2023-05-14T18:12:09.180Z,3.47
2023-05-14T18:15:05.236Z,3.17
2023-05-14T18:18:13.327Z,2.78
2023-05-14T18:23:07.203Z,3.10
2023-05-14T18:25:36.816Z,2.90
2023-05-14T18:28:04.215Z,2.85
2023-05-14T18:30:31.316Z,2.75
2023-05-14T18:32:59.965Z,2.70
2023-05-14T18:35:28.000Z,2.95
2023-05-14T18:37:55.246Z,2.55
2023-05-14T18:40:22.481Z,2.90
2023-05-14T18:42:49.517Z,2.60
2023-05-14T18:45:16.771Z,2.55
2023-05-14T18:47:44.295Z,2.90
2023-05-14T18:50:13.943Z,2.45
2023-05-14T18:52:43.359Z,2.60
2023-05-14T18:55:10.417Z,2.55
2023-05-14T18:57:37.768Z,2.63
2023-05-14T19:00:05.468Z,2.58
2023-05-14T19:02:35.080Z,2.45
2023-05-14T19:05:12.353Z,2.30
2023-05-14T19:07:41.859Z,2.50
2023-05-14T19:10:10.038Z,2.47
2023-05-14T19:12:37.140Z,2.30
2023-05-14T19:15:11.872Z,2.28
2023-05-14T19:18:05.196Z,2.30
2023-05-14T19:24:44.063Z,2.45
2023-05-14T19:27:38.304Z,2.83
2023-05-14T19:30:07.011Z,2.55
2023-05-14T19:32:45.047Z,2.33
2023-05-14T19:35:21.443Z,2.70
2023-05-14T19:37:55.172Z,2.70
2023-05-14T19:40:24.149Z,2.40
2023-05-14T19:42:52.187Z,2.80
2023-05-14T19:45:19.233Z,2.58
2023-05-14T19:47:50.192Z,2.38
2023-05-14T19:50:43.040Z,2.80
2023-05-14T19:53:10.168Z,2.65
2023-05-14T19:55:37.335Z,2.15
2023-05-14T19:58:04.454Z,2.70
2023-05-14T20:00:31.724Z,2.80
2023-05-14T20:02:59.710Z,2.90
2023-05-14T20:05:26.959Z,3.17
2023-05-14T20:07:56.602Z,2.67
2023-05-14T20:10:24.366Z,2.63
2023-05-14T20:12:51.703Z,2.72
2023-05-14T20:15:18.731Z,2.80
2023-05-14T20:17:46.316Z,2.80
2023-05-14T20:20:14.474Z,3.30
2023-05-14T20:22:42.879Z,3.30
2023-05-14T20:25:10.252Z,3.03
2023-05-14T20:27:37.713Z,3.53
2023-05-14T20:30:05.656Z,3.85
2023-05-14T20:32:32.832Z,3.45
2023-05-14T20:35:02.861Z,3.53
2023-05-14T20:37:33.182Z,3.80
2023-05-14T20:40:01.407Z,4.30
2023-05-14T20:42:31.511Z,3.40
2023-05-14T20:44:58.567Z,3.90
2023-05-14T20:47:26.883Z,3.50
2023-05-14T20:49:53.913Z,3.33
2023-05-14T20:52:21.049Z,3.58
2023-05-14T20:54:48.377Z,3.35
2023-05-14T20:57:16.101Z,3.08
2023-05-14T20:59:43.378Z,3.83
2023-05-14T21:02:10.833Z,3.35
2023-05-14T21:04:38.831Z,3.88
2023-05-14T21:07:07.052Z,3.40
2023-05-14T21:09:34.140Z,3.92
2023-05-14T21:12:01.363Z,3.20
2023-05-14T21:14:28.424Z,3.60
2023-05-14T21:16:55.659Z,4.05
2023-05-14T21:19:23.523Z,3.75
2023-05-14T21:21:50.715Z,3.60
2023-05-14T21:24:19.083Z,3.85
2023-05-14T21:26:46.512Z,3.20
2023-05-14T21:29:13.621Z,3.58
2023-05-14T21:31:40.942Z,3.35
2023-05-14T21:34:08.043Z,3.35
2023-05-14T21:36:35.484Z,3.35
2023-05-14T21:39:02.629Z,3.92
2023-05-14T21:41:32.073Z,3.50
2023-05-14T21:43:59.102Z,3.42
2023-05-14T21:46:26.261Z,4.10
2023-05-14T21:48:53.335Z,4.25
2023-05-14T21:51:20.502Z,3.70
2023-05-14T21:53:48.479Z,3.67
2023-05-14T21:56:15.849Z,3.42
2023-05-14T21:58:42.973Z,3.90
2023-05-14T22:01:11.545Z,3.30
2023-05-14T22:03:38.845Z,4.05
2023-05-14T22:06:06.237Z,3.97
2023-05-14T22:08:33.251Z,4.50
2023-05-14T22:11:00.444Z,4.10
2023-05-14T22:13:28.722Z,4.30
2023-05-14T22:16:05.296Z,4.32
2023-05-14T22:18:39.599Z,3.88
2023-05-14T22:21:06.959Z,3.92
2023-05-14T22:23:33.950Z,4.45
2023-05-14T22:26:01.115Z,3.88
2023-05-14T22:28:28.135Z,4.70
2023-05-14T22:30:56.641Z,3.95
2023-05-14T22:33:23.932Z,4.22
2023-05-14T22:35:51.463Z,4.30
2023-05-14T22:38:20.065Z,3.92
2023-05-14T22:40:47.261Z,3.90
2023-05-14T22:43:14.197Z,4.80
2023-05-14T22:45:41.447Z,4.28
2023-05-14T22:48:09.220Z,4.07
2023-05-14T22:50:36.091Z,4.00
2023-05-14T22:53:03.036Z,4.68
2023-05-14T22:55:30.379Z,4.82
2023-05-14T22:57:57.399Z,4.40
2023-05-14T23:00:24.396Z,4.57
2023-05-14T23:02:51.981Z,4.55
2023-05-14T23:05:19.675Z,4.32
2023-05-14T23:07:46.755Z,4.60
2023-05-14T23:10:13.780Z,4.53
2023-05-14T23:12:46.168Z,5.55
2023-05-14T23:15:15.091Z,4.60
2023-05-14T23:17:42.516Z,4.20
2023-05-14T23:20:12.868Z,4.40
2023-05-14T23:22:40.920Z,4.82
2023-05-14T23:25:08.386Z,4.35
2023-05-14T23:27:35.742Z,4.72
2023-05-14T23:30:07.317Z,4.50
2023-05-14T23:32:34.305Z,4.95
2023-05-14T23:35:01.586Z,4.85
2023-05-14T23:37:29.165Z,4.88
2023-05-14T23:39:56.222Z,4.40
2023-05-14T23:42:23.386Z,5.13
2023-05-14T23:44:50.537Z,4.75
2023-05-14T23:47:17.746Z,4.70
2023-05-14T23:49:44.802Z,4.80
2023-05-14T23:52:12.783Z,4.65
2023-05-14T23:54:39.893Z,4.75
2023-05-14T23:57:06.955Z,4.45
2023-05-14T23:59:34.002Z,5.20
